Time;durP1;ratioP1;P1;durP2;ratioP2;P2;SDS_P1;SDS_P2;PMS_P1;PMS_P2;Temp;Humidity;BMP_temperature;BMP_pressure;BME280_temperature;BME280_humidity;BME280_pressure;Samples;Min_cycle;Max_cycle;Signal;HPM_P1;HPM_P2
2022/12/09 00:01:31;;;;;;;;;;;;;;;;;;5011821;28;20329;-69
2022/12/09 00:03:57;;;;;;;;;;;;;;;;;;5015187;28;20302;-69
2022/12/09 00:06:23;;;;;;;;;;;;;;;;;;5011285;28;19918;-67
2022/12/09 00:08:49;;;;;;;;;;;;;;;;;;5026198;28;20012;-69
2022/12/09 00:11:15;;;;;;;;;;;;;;;;;;5036754;28;19978;-68
2022/12/09 00:13:41;;;;;;;;;;;;;;;;;;5030396;28;19913;-70
2022/12/09 00:16:06;;;;;;;;;;;;;;;;;;5030964;28;19939;-70
2022/12/09 00:18:32;;;;;;;;;;;;;;;;;;5020514;28;19913;-71
2022/12/09 00:20:58;;;;;;;;;;;;;;;;;;5011253;28;19967;-69
2022/12/09 00:23:24;;;;;;;;;;;;;;;;;;5011436;28;19952;-69
2022/12/09 00:25:50;;;;;;;;;;;;;;;;;;5014546;28;20348;-70
2022/12/09 00:28:16;;;;;;;;;;;;;;;;;;5026733;28;19913;-70
2022/12/09 00:30:42;;;;;;;;;;;;;;;;;;5023902;28;19956;-71
2022/12/09 00:33:08;;;;;;;;;;;;;;;;;;5029789;28;20542;-70
2022/12/09 00:35:34;;;;;;;;;;;;;;;;;;5016963;28;20016;-69
2022/12/09 00:37:59;;;;;;;;;;;;;;;;;;5015748;28;19960;-70
2022/12/09 00:40:25;;;;;;;;;;;;;;;;;;5011245;28;19959;-70
2022/12/09 00:42:51;;;;;;;;;;;;;;;;;;5010330;28;19909;-70
2022/12/09 00:45:17;;;;;;;;;;;;;;;;;;5016193;28;20267;-70
2022/12/09 00:47:43;;;;;;;;;;;;;;;;;;5010857;28;20008;-70
2022/12/09 00:50:09;;;;;;;;;;;;;;;;;;5010578;28;20318;-70
2022/12/09 00:52:35;;;;;;;;;;;;;;;;;;5010587;28;19913;-69
2022/12/09 00:55:01;;;;;;;;;;;;;;;;;;5011106;28;19914;-69
2022/12/09 00:57:27;;;;;;;;;;;;;;;;;;5029280;28;19913;-69
2022/12/09 00:59:52;;;;;;;;;;;;;;;;;;5011513;28;20420;-69
2022/12/09 01:02:18;;;;;;;;;;;;;;;;;;5028313;28;19913;-69
2022/12/09 01:04:44;;;;;;;;;;;;;;;;;;5028871;28;20024;-69
2022/12/09 01:07:10;;;;;;;;;;;;;;;;;;5032651;28;19916;-70
2022/12/09 01:09:36;;;;;;;;;;;;;;;;;;5017834;28;19917;-71
2022/12/09 01:12:02;;;;;;;;;;;;;;;;;;5022984;28;19920;-70
2022/12/09 01:14:28;;;;;;;;;;;;;;;;;;5030000;28;20313;-70
2022/12/09 01:16:54;;;;;;;;;;;;;;;;;;5029093;28;20302;-70
2022/12/09 01:19:20;;;;;;;;;;;;;;;;;;5028847;28;19916;-70
2022/12/09 01:21:46;;;;;;;;;;;;;;;;;;5029366;28;20012;-70
2022/12/09 01:24:12;;;;;;;;;;;;;;;;;;5029361;28;20032;-70
2022/12/09 01:26:38;;;;;;;;;;;;;;;;;;5019986;28;20023;-70
2022/12/09 01:29:04;;;;;;;;;;;;;;;;;;5010637;28;19909;-69
2022/12/09 01:31:30;;;;;;;;;;;;;;;;;;5011648;28;19992;-70
2022/12/09 01:33:55;;;;;;;;;;;;;;;;;;5010104;28;19921;-70
2022/12/09 01:36:21;;;;;;;;;;;;;;;;;;5011265;28;19914;-69
2022/12/09 01:38:47;;;;;;;;;;;;;;;;;;5029211;28;20028;-69
2022/12/09 01:41:13;;;;;;;;;;;;;;;;;;5015619;28;19924;-69
2022/12/09 01:43:39;;;;;;;;;;;;;;;;;;5010013;28;20056;-69
2022/12/09 01:46:05;;;;;;;;;;;;;;;;;;5010162;28;19917;-69
2022/12/09 01:48:31;;;;;;;;;;;;;;;;;;5009436;28;19914;-69
2022/12/09 01:50:57;;;;;;;;;;;;;;;;;;5009813;28;19914;-69
2022/12/09 01:53:23;;;;;;;;;;;;;;;;;;5015861;28;19917;-69
2022/12/09 01:55:49;;;;;;;;;;;;;;;;;;5029247;28;19920;-70
2022/12/09 01:58:14;;;;;;;;;;;;;;;;;;5028935;28;20388;-69
2022/12/09 02:00:40;;;;;;;;;;;;;;;;;;5028481;28;19909;-69
2022/12/09 02:03:06;;;;;;;;;;;;;;;;;;5016498;28;19924;-69
2022/12/09 02:05:32;;;;;;;;;;;;;;;;;;5010018;28;19980;-69
2022/12/09 02:07:58;;;;;;;;;;;;;;;;;;5018208;28;19930;-68
2022/12/09 02:10:24;;;;;;;;;;;;;;;;;;5015215;28;19910;-68
2022/12/09 02:12:50;;;;;;;;;;;;;;;;;;5013171;28;19913;-69
2022/12/09 02:15:16;;;;;;;;;;;;;;;;;;5013361;28;19913;-69
2022/12/09 02:17:42;;;;;;;;;;;;;;;;;;5021800;28;19936;-68
2022/12/09 02:20:08;;;;;;;;;;;;;;;;;;5012719;28;19952;-69
2022/12/09 02:22:33;;;;;;;;;;;;;;;;;;5013910;28;19949;-68
2022/12/09 02:24:59;;;;;;;;;;;;;;;;;;5028102;28;20377;-68
2022/12/09 02:27:25;;;;;;;;;;;;;;;;;;5013499;28;19924;-69
2022/12/09 02:29:51;;;;;;;;;;;;;;;;;;5009478;28;20428;-68
2022/12/09 02:32:17;;;;;;;;;;;;;;;;;;5008930;28;20008;-67
2022/12/09 02:34:43;;;;;;;;;;;;;;;;;;5013388;28;19913;-68
2022/12/09 02:37:09;;;;;;;;;;;;;;;;;;5009651;28;19913;-67
2022/12/09 02:39:35;;;;;;;;;;;;;;;;;;5016884;28;20002;-67
2022/12/09 02:42:00;;;;;;;;;;;;;;;;;;5028373;28;19913;-66
2022/12/09 02:44:26;;;;;;;;;;;;;;;;;;5027819;28;19922;-68
2022/12/09 02:46:52;;;;;;;;;;;;;;;;;;5028411;28;20392;-68
2022/12/09 02:49:18;;;;;;;;;;;;;;;;;;5028150;28;19913;-68
2022/12/09 02:51:44;;;;;;;;;;;;;;;;;;5028247;28;19913;-67
2022/12/09 02:54:10;;;;;;;;;;;;;;;;;;5029112;28;19975;-69
2022/12/09 02:56:36;;;;;;;;;;;;;;;;;;5028935;28;19913;-69
2022/12/09 02:59:02;;;;;;;;;;;;;;;;;;5028205;28;19913;-69
2022/12/09 03:01:28;;;;;;;;;;;;;;;;;;5028216;28;20389;-68
2022/12/09 03:03:54;;;;;;;;;;;;;;;;;;5028484;28;19913;-69
2022/12/09 03:06:19;;;;;;;;;;;;;;;;;;5028549;28;19924;-69
2022/12/09 03:08:45;;;;;;;;;;;;;;;;;;5024372;28;20037;-70
2022/12/09 03:11:11;;;;;;;;;;;;;;;;;;5012984;28;19909;-69
2022/12/09 03:13:37;;;;;;;;;;;;;;;;;;5015458;28;19913;-69
2022/12/09 03:16:03;;;;;;;;;;;;;;;;;;5014642;28;19913;-69
2022/12/09 03:18:29;;;;;;;;;;;;;;;;;;5015058;28;19921;-70
2022/12/09 03:20:55;;;;;;;;;;;;;;;;;;5025111;28;19921;-67
2022/12/09 03:23:21;;;;;;;;;;;;;;;;;;5031677;28;20494;-67
2022/12/09 03:25:47;;;;;;;;;;;;;;;;;;5031268;28;19925;-68
2022/12/09 03:28:13;;;;;;;;;;;;;;;;;;5031134;28;20283;-67
2022/12/09 03:30:38;;;;;;;;;;;;;;;;;;5022020;28;20906;-67
2022/12/09 03:33:04;;;;;;;;;;;;;;;;;;5023592;28;19914;-67
2022/12/09 03:35:30;;;;;;;;;;;;;;;;;;5027611;28;19909;-68
2022/12/09 03:37:56;;;;;;;;;;;;;;;;;;5029416;28;20414;-68
2022/12/09 03:40:22;;;;;;;;;;;;;;;;;;5012297;28;19913;-68
2022/12/09 03:42:48;;;;;;;;;;;;;;;;;;5011888;28;19959;-68
2022/12/09 03:45:14;;;;;;;;;;;;;;;;;;5011876;28;19929;-69
2022/12/09 03:47:40;;;;;;;;;;;;;;;;;;5012456;28;19964;-68
2022/12/09 03:50:06;;;;;;;;;;;;;;;;;;5031730;28;19910;-68
2022/12/09 03:52:32;;;;;;;;;;;;;;;;;;5024330;28;19967;-68
2022/12/09 03:54:58;;;;;;;;;;;;;;;;;;5012000;28;19913;-69
2022/12/09 03:57:24;;;;;;;;;;;;;;;;;;5011839;28;19915;-69
2022/12/09 03:59:49;;;;;;;;;;;;;;;;;;5011870;28;20373;-68
2022/12/09 04:02:15;;;;;;;;;;;;;;;;;;5021039;28;19914;-69
2022/12/09 04:04:41;;;;;;;;;;;;;;;;;;5030498;28;19943;-67
2022/12/09 04:07:07;;;;;;;;;;;;;;;;;;5032750;28;19975;-69
2022/12/09 04:09:33;;;;;;;;;;;;;;;;;;5019030;28;19952;-69
2022/12/09 04:11:59;;;;;;;;;;;;;;;;;;5030581;28;19959;-68
2022/12/09 04:14:25;;;;;;;;;;;;;;;;;;5030271;28;20420;-69
2022/12/09 04:16:51;;;;;;;;;;;;;;;;;;5030281;28;19913;-69
2022/12/09 04:19:17;;;;;;;;;;;;;;;;;;5030586;28;19909;-69
2022/12/09 04:21:42;;;;;;;;;;;;;;;;;;5030116;28;19944;-68
2022/12/09 04:24:08;;;;;;;;;;;;;;;;;;5030050;28;19921;-69
2022/12/09 04:26:34;;;;;;;;;;;;;;;;;;5030122;28;19924;-69
2022/12/09 04:29:00;;;;;;;;;;;;;;;;;;5030265;28;20373;-69
2022/12/09 04:31:26;;;;;;;;;;;;;;;;;;5030375;28;19913;-68
2022/12/09 04:33:52;;;;;;;;;;;;;;;;;;5030753;28;20762;-69
2022/12/09 04:36:18;;;;;;;;;;;;;;;;;;5030413;28;20320;-69
2022/12/09 04:38:44;;;;;;;;;;;;;;;;;;5022079;28;19963;-69
2022/12/09 04:41:10;;;;;;;;;;;;;;;;;;5012003;28;20337;-69
2022/12/09 04:43:35;;;;;;;;;;;;;;;;;;5030128;28;19914;-69
2022/12/09 04:46:01;;;;;;;;;;;;;;;;;;5030225;28;20354;-69
2022/12/09 04:48:27;;;;;;;;;;;;;;;;;;5030371;28;19914;-68
2022/12/09 04:50:53;;;;;;;;;;;;;;;;;;5017113;28;20286;-68
2022/12/09 04:53:19;;;;;;;;;;;;;;;;;;5029986;28;19960;-69
2022/12/09 04:55:45;;;;;;;;;;;;;;;;;;5029262;28;20340;-68
2022/12/09 04:58:11;;;;;;;;;;;;;;;;;;5030470;28;19924;-67
2022/12/09 05:00:37;;;;;;;;;;;;;;;;;;5029905;28;20365;-68
2022/12/09 05:03:02;;;;;;;;;;;;;;;;;;5029657;28;19962;-68
2022/12/09 05:05:29;;;;;;;;;;;;;;;;;;5029780;28;19925;-68
2022/12/09 05:07:55;;;;;;;;;;;;;;;;;;5027267;28;20298;-68
2022/12/09 05:10:21;;;;;;;;;;;;;;;;;;5017522;28;19960;-68
2022/12/09 05:12:46;;;;;;;;;;;;;;;;;;5010366;28;19914;-67
2022/12/09 05:15:12;;;;;;;;;;;;;;;;;;5011068;28;19996;-68
2022/12/09 05:17:38;;;;;;;;;;;;;;;;;;5010212;28;20041;-68
2022/12/09 05:20:04;;;;;;;;;;;;;;;;;;5010336;28;19920;-68
2022/12/09 05:22:30;;;;;;;;;;;;;;;;;;5014613;28;19945;-68
2022/12/09 05:24:56;;;;;;;;;;;;;;;;;;5028662;28;19917;-68
2022/12/09 05:27:22;;;;;;;;;;;;;;;;;;5029227;28;19933;-68
2022/12/09 05:29:48;;;;;;;;;;;;;;;;;;5028599;28;19956;-68
2022/12/09 05:32:14;;;;;;;;;;;;;;;;;;5029075;28;19913;-68
2022/12/09 05:34:39;;;;;;;;;;;;;;;;;;5028015;28;19917;-68
2022/12/09 05:37:05;;;;;;;;;;;;;;;;;;5028936;28;19913;-69
2022/12/09 05:39:31;;;;;;;;;;;;;;;;;;5028596;28;19913;-69
2022/12/09 05:41:57;;;;;;;;;;;;;;;;;;5029492;28;19913;-68
2022/12/09 05:44:23;;;;;;;;;;;;;;;;;;5028859;28;19928;-68
2022/12/09 05:46:49;;;;;;;;;;;;;;;;;;5029479;28;20122;-68
2022/12/09 05:49:15;;;;;;;;;;;;;;;;;;5028543;28;19909;-68
2022/12/09 05:51:41;;;;;;;;;;;;;;;;;;5009984;28;20346;-68
2022/12/09 05:54:07;;;;;;;;;;;;;;;;;;5010009;28;19916;-69
2022/12/09 05:56:33;;;;;;;;;;;;;;;;;;5022155;28;19920;-69
2022/12/09 05:58:59;;;;;;;;;;;;;;;;;;5009789;28;20007;-70
2022/12/09 06:01:24;;;;;;;;;;;;;;;;;;5010174;28;20378;-69
2022/12/09 06:03:50;;;;;;;;;;;;;;;;;;5009683;28;19957;-69
2022/12/09 06:06:16;;;;;;;;;;;;;;;;;;5028226;28;19909;-69
2022/12/09 06:08:42;;;;;;;;;;;;;;;;;;5030948;28;19925;-69
2022/12/09 06:11:08;;;;;;;;;;;;;;;;;;5028958;28;19913;-69
2022/12/09 06:13:34;;;;;;;;;;;;;;;;;;5028901;28;19917;-69
2022/12/09 06:16:00;;;;;;;;;;;;;;;;;;5028603;28;19913;-69
2022/12/09 06:18:26;;;;;;;;;;;;;;;;;;5029154;28;19913;-69
2022/12/09 06:20:52;;;;;;;;;;;;;;;;;;5029128;28;19909;-69
2022/12/09 06:23:17;;;;;;;;;;;;;;;;;;5028150;28;19952;-69
2022/12/09 06:25:44;;;;;;;;;;;;;;;;;;5015607;28;19921;-69
2022/12/09 06:28:10;;;;;;;;;;;;;;;;;;5028436;28;19921;-68
2022/12/09 06:30:36;;;;;;;;;;;;;;;;;;5020755;28;19924;-69
2022/12/09 06:33:02;;;;;;;;;;;;;;;;;;5028530;28;20366;-67
2022/12/09 06:35:28;;;;;;;;;;;;;;;;;;5021540;28;19990;-68
2022/12/09 06:37:54;;;;;;;;;;;;;;;;;;5028065;28;20028;-67
2022/12/09 06:40:23;;;;;;;;;;;;;;;;;;5027423;28;19913;-68
2022/12/09 06:42:49;;;;;;;;;;;;;;;;;;5032540;28;19913;-68
2022/12/09 06:45:15;;;;;;;;;;;;;;;;;;5032085;28;19947;-71
2022/12/09 06:47:41;;;;;;;;;;;;;;;;;;5016972;28;20004;-69
2022/12/09 06:50:07;;;;;;;;;;;;;;;;;;5013216;28;19920;-72
2022/12/09 06:52:33;;;;;;;;;;;;;;;;;;5012603;28;20382;-70
2022/12/09 06:54:58;;;;;;;;;;;;;;;;;;5013060;28;19916;-71
2022/12/09 06:57:24;;;;;;;;;;;;;;;;;;5013499;28;19913;-75
2022/12/09 06:59:50;;;;;;;;;;;;;;;;;;5032249;28;19913;-74
2022/12/09 07:02:16;;;;;;;;;;;;;;;;;;5024248;28;20365;-74
2022/12/09 07:04:42;;;;;;;;;;;;;;;;;;5031888;28;19921;-75
2022/12/09 07:07:08;;;;;;;;;;;;;;;;;;5034126;28;19913;-74
2022/12/09 07:09:34;;;;;;;;;;;;;;;;;;5031907;28;19959;-74
2022/12/09 07:12:00;;;;;;;;;;;;;;;;;;5032100;28;20024;-75
2022/12/09 07:14:26;;;;;;;;;;;;;;;;;;5019619;28;19920;-76
2022/12/09 07:16:52;;;;;;;;;;;;;;;;;;5012109;28;19960;-75
2022/12/09 07:19:18;;;;;;;;;;;;;;;;;;5020350;28;19913;-74
2022/12/09 07:21:43;;;;;;;;;;;;;;;;;;5026838;28;20344;-77
2022/12/09 07:24:10;;;;;;;;;;;;;;;;;;5013277;28;19913;-76
2022/12/09 07:26:36;;;;;;;;;;;;;;;;;;5024898;28;19943;-75
2022/12/09 07:29:02;;;;;;;;;;;;;;;;;;5027258;28;19909;-73
2022/12/09 07:31:28;;;;;;;;;;;;;;;;;;5027623;28;20349;-74
2022/12/09 07:33:54;;;;;;;;;;;;;;;;;;5019261;28;20289;-74
2022/12/09 07:36:20;;;;;;;;;;;;;;;;;;5031692;28;19917;-75
2022/12/09 07:38:46;;;;;;;;;;;;;;;;;;5030045;28;20353;-76
2022/12/09 07:41:16;;;;;;;;;;;;;;;;;;5029561;28;20076;-75
2022/12/09 07:43:42;;;;;;;;;;;;;;;;;;5019378;28;19920;-75
2022/12/09 07:46:08;;;;;;;;;;;;;;;;;;5032212;28;19909;-75
2022/12/09 07:48:34;;;;;;;;;;;;;;;;;;5031660;28;19917;-74
2022/12/09 07:51:00;;;;;;;;;;;;;;;;;;5031444;28;20003;-75
2022/12/09 07:53:26;;;;;;;;;;;;;;;;;;5017014;28;19910;-75
2022/12/09 07:55:52;;;;;;;;;;;;;;;;;;5012847;28;19959;-74
2022/12/09 07:58:17;;;;;;;;;;;;;;;;;;5021248;28;19913;-75
2022/12/09 08:00:43;;;;;;;;;;;;;;;;;;5031927;28;20346;-75
2022/12/09 08:03:09;;;;;;;;;;;;;;;;;;5031723;28;19981;-74
2022/12/09 08:05:35;;;;;;;;;;;;;;;;;;5032136;28;20374;-75
2022/12/09 08:08:01;;;;;;;;;;;;;;;;;;5023782;28;19922;-75
2022/12/09 08:10:27;;;;;;;;;;;;;;;;;;5031161;28;20317;-75
2022/12/09 08:12:53;;;;;;;;;;;;;;;;;;5020350;28;19957;-75
2022/12/09 08:15:19;;;;;;;;;;;;;;;;;;5019371;28;20020;-74
2022/12/09 08:17:45;;;;;;;;;;;;;;;;;;5032089;28;19913;-75
2022/12/09 08:20:11;;;;;;;;;;;;;;;;;;5025575;28;19913;-75
2022/12/09 08:22:37;;;;;;;;;;;;;;;;;;5031497;28;19909;-74
2022/12/09 08:25:02;;;;;;;;;;;;;;;;;;5031696;28;20301;-75
2022/12/09 08:27:28;;;;;;;;;;;;;;;;;;5020100;28;19914;-75
2022/12/09 08:29:54;;;;;;;;;;;;;;;;;;5030095;28;19919;-75
2022/12/09 08:32:20;;;;;;;;;;;;;;;;;;5031197;28;19917;-75
2022/12/09 08:34:46;;;;;;;;;;;;;;;;;;5030738;28;19913;-74
2022/12/09 08:37:12;;;;;;;;;;;;;;;;;;5030570;28;20378;-75
2022/12/09 08:39:38;;;;;;;;;;;;;;;;;;5031475;28;19909;-75
2022/12/09 08:42:04;;;;;;;;;;;;;;;;;;5031371;28;20290;-75
2022/12/09 08:44:30;;;;;;;;;;;;;;;;;;5021106;28;19922;-75
2022/12/09 08:46:55;;;;;;;;;;;;;;;;;;5011857;28;20006;-74
2022/12/09 08:49:22;;;;;;;;;;;;;;;;;;5027078;28;20278;-75
2022/12/09 08:51:48;;;;;;;;;;;;;;;;;;5030638;28;19913;-74
2022/12/09 08:54:14;;;;;;;;;;;;;;;;;;5030381;28;19917;-75
2022/12/09 08:56:40;;;;;;;;;;;;;;;;;;5028317;28;20382;-74
2022/12/09 08:59:06;;;;;;;;;;;;;;;;;;5011615;28;19909;-75
2022/12/09 09:01:33;;;;;;;;;;;;;;;;;;5019090;28;20039;-77
2022/12/09 09:03:59;;;;;;;;;;;;;;;;;;5015467;28;19984;-74
2022/12/09 09:06:25;;;;;;;;;;;;;;;;;;5011673;28;19945;-75
2022/12/09 09:08:51;;;;;;;;;;;;;;;;;;5028666;28;20298;-75
2022/12/09 09:11:17;;;;;;;;;;;;;;;;;;5030043;28;19920;-74
2022/12/09 09:13:43;;;;;;;;;;;;;;;;;;5030073;28;20483;-74
2022/12/09 09:16:09;;;;;;;;;;;;;;;;;;5022621;28;20333;-74
2022/12/09 09:18:35;;;;;;;;;;;;;;;;;;5010038;28;20374;-75
2022/12/09 09:21:01;;;;;;;;;;;;;;;;;;5023599;28;19913;-74
2022/12/09 09:23:26;;;;;;;;;;;;;;;;;;5010446;28;19910;-74
2022/12/09 09:25:52;;;;;;;;;;;;;;;;;;5018287;28;19921;-75
2022/12/09 09:28:18;;;;;;;;;;;;;;;;;;5013186;28;19918;-74
2022/12/09 09:30:49;;;;;;;;;;;;;;;;;;5022130;28;19913;-74
2022/12/09 09:33:15;;;;;;;;;;;;;;;;;;5030013;28;19935;-75
2022/12/09 09:35:41;;;;;;;;;;;;;;;;;;5021575;28;20362;-74
2022/12/09 09:38:07;;;;;;;;;;;;;;;;;;5017096;28;19916;-76
2022/12/09 09:40:33;;;;;;;;;;;;;;;;;;5029381;28;20583;-75
2022/12/09 09:42:59;;;;;;;;;;;;;;;;;;5029390;28;19928;-75
2022/12/09 09:45:24;;;;;;;;;;;;;;;;;;5019830;28;20002;-74
2022/12/09 09:47:50;;;;;;;;;;;;;;;;;;5016183;28;20359;-75
2022/12/09 09:50:16;;;;;;;;;;;;;;;;;;5025359;28;19910;-74
2022/12/09 09:52:42;;;;;;;;;;;;;;;;;;5009994;28;20298;-74
2022/12/09 09:55:08;;;;;;;;;;;;;;;;;;5010040;28;19945;-74
2022/12/09 09:57:34;;;;;;;;;;;;;;;;;;5025926;28;20289;-74
2022/12/09 10:00:00;;;;;;;;;;;;;;;;;;5028979;28;19914;-74
2022/12/09 10:02:26;;;;;;;;;;;;;;;;;;5027448;28;20563;-74
2022/12/09 10:04:51;;;;;;;;;;;;;;;;;;5018969;28;19921;-74
2022/12/09 10:07:17;;;;;;;;;;;;;;;;;;5017420;28;19913;-73
2022/12/09 10:09:43;;;;;;;;;;;;;;;;;;5010531;28;19914;-74
2022/12/09 10:12:09;;;;;;;;;;;;;;;;;;5024588;28;19909;-74
2022/12/09 10:14:35;;;;;;;;;;;;;;;;;;5029015;28;19932;-74
2022/12/09 10:17:01;;;;;;;;;;;;;;;;;;5033394;28;20004;-73
2022/12/09 10:19:27;;;;;;;;;;;;;;;;;;5026711;28;19913;-72
2022/12/09 10:21:53;;;;;;;;;;;;;;;;;;5032810;28;19913;-74
2022/12/09 10:24:19;;;;;;;;;;;;;;;;;;5022529;28;20083;-75
2022/12/09 10:26:45;;;;;;;;;;;;;;;;;;5033528;28;20369;-75
2022/12/09 10:29:11;;;;;;;;;;;;;;;;;;5020105;28;19921;-75
2022/12/09 10:31:37;;;;;;;;;;;;;;;;;;5033243;28;19913;-74
2022/12/09 10:34:03;;;;;;;;;;;;;;;;;;5033025;28;19916;-74
2022/12/09 10:36:28;;;;;;;;;;;;;;;;;;5032730;28;19940;-74
2022/12/09 10:38:54;;;;;;;;;;;;;;;;;;5026391;28;19920;-74
2022/12/09 10:43:33;;;;;;;;;;;;;;;;;;5032883;28;19920;-74
2022/12/09 10:44:06;;;;;;;;;;;;;;;;;;5032289;28;19986;-74
2022/12/09 10:46:32;;;;;;;;;;;;;;;;;;5032815;28;19921;-74
2022/12/09 10:49:02;;;;;;;;;;;;;;;;;;5032508;28;19964;-74
2022/12/09 10:51:28;;;;;;;;;;;;;;;;;;5032206;28;19913;-75
2022/12/09 10:53:54;;;;;;;;;;;;;;;;;;5019661;28;19917;-75
2022/12/09 10:56:20;;;;;;;;;;;;;;;;;;5013117;28;20012;-74
2022/12/09 10:58:46;;;;;;;;;;;;;;;;;;5024954;28;19914;-74
2022/12/09 11:01:12;;;;;;;;;;;;;;;;;;5026117;28;19909;-74
2022/12/09 11:03:37;;;;;;;;;;;;;;;;;;5013402;28;19913;-74
2022/12/09 11:06:03;;;;;;;;;;;;;;;;;;5019035;28;19921;-74
2022/12/09 11:08:29;;;;;;;;;;;;;;;;;;5027594;28;19925;-74
2022/12/09 11:10:55;;;;;;;;;;;;;;;;;;5012684;28;19937;-75
2022/12/09 11:13:21;;;;;;;;;;;;;;;;;;5012875;28;19925;-73
2022/12/09 11:15:47;;;;;;;;;;;;;;;;;;5013310;28;19909;-74
2022/12/09 11:18:13;;;;;;;;;;;;;;;;;;5030979;28;20387;-75
2022/12/09 11:20:39;;;;;;;;;;;;;;;;;;5032370;28;19913;-75
2022/12/09 11:23:05;;;;;;;;;;;;;;;;;;5031970;28;20408;-74
2022/12/09 11:25:31;;;;;;;;;;;;;;;;;;5021107;28;19918;-74
2022/12/09 11:27:56;;;;;;;;;;;;;;;;;;5014874;28;20012;-74
2022/12/09 11:30:22;;;;;;;;;;;;;;;;;;5018737;28;19932;-75
2022/12/09 11:32:48;;;;;;;;;;;;;;;;;;5020346;28;20394;-75
2022/12/09 11:35:14;;;;;;;;;;;;;;;;;;5017932;28;19919;-75
2022/12/09 11:37:40;;;;;;;;;;;;;;;;;;5018621;28;19917;-78
2022/12/09 11:40:06;;;;;;;;;;;;;;;;;;5020278;28;19936;-76
2022/12/09 11:42:32;;;;;;;;;;;;;;;;;;5018930;28;20382;-77
2022/12/09 11:44:58;;;;;;;;;;;;;;;;;;5016179;28;19965;-77
2022/12/09 11:47:24;;;;;;;;;;;;;;;;;;5017957;28;19913;-77
2022/12/09 11:49:50;;;;;;;;;;;;;;;;;;5021425;28;19913;-78
2022/12/09 11:52:15;;;;;;;;;;;;;;;;;;5018964;28;20417;-78
2022/12/09 11:54:42;;;;;;;;;;;;;;;;;;5020489;28;20012;-76
2022/12/09 11:57:08;;;;;;;;;;;;;;;;;;5019294;28;19914;-76
2022/12/09 11:59:34;;;;;;;;;;;;;;;;;;5018550;28;19928;-77
2022/12/09 12:02:00;;;;;;;;;;;;;;;;;;5016124;28;20348;-76
2022/12/09 12:04:26;;;;;;;;;;;;;;;;;;5019111;28;19932;-75
2022/12/09 12:06:52;;;;;;;;;;;;;;;;;;5017534;28;19913;-79
2022/12/09 12:09:18;;;;;;;;;;;;;;;;;;5019238;28;20666;-79
2022/12/09 12:11:44;;;;;;;;;;;;;;;;;;5015394;28;19920;-74
2022/12/09 12:14:09;;;;;;;;;;;;;;;;;;5018458;28;20014;-75
2022/12/09 12:16:35;;;;;;;;;;;;;;;;;;5018508;28;20008;-77
2022/12/09 12:19:01;;;;;;;;;;;;;;;;;;5018638;28;20381;-77
2022/12/09 12:21:27;;;;;;;;;;;;;;;;;;5018325;28;20000;-75
2022/12/09 12:23:53;;;;;;;;;;;;;;;;;;5018940;28;20390;-75
2022/12/09 12:26:19;;;;;;;;;;;;;;;;;;5021039;28;19917;-75
2022/12/09 12:28:45;;;;;;;;;;;;;;;;;;5020606;28;20421;-75
2022/12/09 12:31:11;;;;;;;;;;;;;;;;;;5021354;28;20012;-74
2022/12/09 12:33:37;;;;;;;;;;;;;;;;;;5018895;28;19919;-75
2022/12/09 12:36:02;;;;;;;;;;;;;;;;;;5018648;28;19918;-78
2022/12/09 12:38:28;;;;;;;;;;;;;;;;;;5023596;28;19924;-76
2022/12/09 12:40:54;;;;;;;;;;;;;;;;;;5021667;28;19917;-77
2022/12/09 12:46:17;;;;;;;;;;;;;;;;;;5019146;28;19970;-74
2022/12/09 12:48:43;;;;;;;;;;;;;;;;;;5016344;28;19913;-78
2022/12/09 12:51:09;;;;;;;;;;;;;;;;;;5020418;28;19963;-75
2022/12/09 12:53:35;;;;;;;;;;;;;;;;;;5019909;28;19921;-79
2022/12/09 12:56:01;;;;;;;;;;;;;;;;;;5016082;28;19952;-78
2022/12/09 12:58:26;;;;;;;;;;;;;;;;;;5019652;28;19923;-77
2022/12/09 13:00:52;;;;;;;;;;;;;;;;;;5021984;28;20353;-77
2022/12/09 13:03:18;;;;;;;;;;;;;;;;;;5020188;28;19928;-79
2022/12/09 13:05:44;;;;;;;;;;;;;;;;;;5016667;28;20040;-77
2022/12/09 13:08:10;;;;;;;;;;;;;;;;;;5019666;28;19933;-78
2022/12/09 13:10:38;;;;;;;;;;;;;;;;;;5019502;28;19971;-78
2022/12/09 13:13:04;;;;;;;;;;;;;;;;;;5020041;28;20358;-76
2022/12/09 13:15:31;;;;;;;;;;;;;;;;;;5018045;28;20008;-81
2022/12/09 13:17:57;;;;;;;;;;;;;;;;;;5016490;28;20391;-80
2022/12/09 13:20:22;;;;;;;;;;;;;;;;;;5018175;28;19924;-77
2022/12/09 13:22:48;;;;;;;;;;;;;;;;;;5023496;28;19920;-78
2022/12/09 13:25:14;;;;;;;;;;;;;;;;;;5021734;28;20381;-77
2022/12/09 13:27:40;;;;;;;;;;;;;;;;;;5018033;28;20055;-79
2022/12/09 13:30:06;;;;;;;;;;;;;;;;;;5022710;28;19950;-77
2022/12/09 13:32:32;;;;;;;;;;;;;;;;;;5019587;28;20386;-80
2022/12/09 13:34:58;;;;;;;;;;;;;;;;;;5019751;28;19913;-78
2022/12/09 13:37:24;;;;;;;;;;;;;;;;;;5019692;28;19914;-79
2022/12/09 13:39:50;;;;;;;;;;;;;;;;;;5016724;28;20378;-81
2022/12/09 13:45:00;;;;;;;;;;;;;;;;;;5023093;28;20011;-80
2022/12/09 13:47:26;;;;;;;;;;;;;;;;;;5019439;28;20393;-80
2022/12/09 13:49:52;;;;;;;;;;;;;;;;;;5022801;28;19917;-81
2022/12/09 13:52:18;;;;;;;;;;;;;;;;;;5017104;28;19956;-82
2022/12/09 13:54:43;;;;;;;;;;;;;;;;;;5021201;28;19929;-83
2022/12/09 13:57:09;;;;;;;;;;;;;;;;;;5015082;28;19918;-80
2022/12/09 13:59:38;;;;;;;;;;;;;;;;;;5022774;28;19944;-81
2022/12/09 14:02:04;;;;;;;;;;;;;;;;;;5022663;28;19924;-77
2022/12/09 14:04:29;;;;;;;;;;;;;;;;;;5023570;28;19929;-81
2022/12/09 14:06:56;;;;;;;;;;;;;;;;;;5015708;28;20418;-78
2022/12/09 14:09:22;;;;;;;;;;;;;;;;;;5021443;28;20279;-80
2022/12/09 14:11:47;;;;;;;;;;;;;;;;;;5017349;28;19959;-79
2022/12/09 14:14:13;;;;;;;;;;;;;;;;;;5022303;28;19952;-79
2022/12/09 14:16:39;;;;;;;;;;;;;;;;;;5025701;28;19918;-78
2022/12/09 14:19:05;;;;;;;;;;;;;;;;;;5015225;28;20000;-78
2022/12/09 14:21:32;;;;;;;;;;;;;;;;;;5024021;28;19924;-79
2022/12/09 14:23:58;;;;;;;;;;;;;;;;;;5021861;28;19917;-78
2022/12/09 14:26:24;;;;;;;;;;;;;;;;;;5021563;28;19921;-76
2022/12/09 14:28:49;;;;;;;;;;;;;;;;;;5020475;28;20469;-79
2022/12/09 14:31:15;;;;;;;;;;;;;;;;;;5022095;28;20004;-78
2022/12/09 14:33:41;;;;;;;;;;;;;;;;;;5012901;28;20283;-79
2022/12/09 14:36:07;;;;;;;;;;;;;;;;;;5017298;28;19948;-79
2022/12/09 14:38:33;;;;;;;;;;;;;;;;;;5020687;28;19918;-79
2022/12/09 14:40:59;;;;;;;;;;;;;;;;;;5024191;28;19984;-76
2022/12/09 14:43:25;;;;;;;;;;;;;;;;;;5017004;28;19997;-76
2022/12/09 14:45:51;;;;;;;;;;;;;;;;;;5023047;28;19921;-81
2022/12/09 14:48:16;;;;;;;;;;;;;;;;;;5019318;28;20035;-79
2022/12/09 14:50:42;;;;;;;;;;;;;;;;;;5020400;28;19913;-83
2022/12/09 14:53:08;;;;;;;;;;;;;;;;;;5018779;28;19924;-75
2022/12/09 14:55:34;;;;;;;;;;;;;;;;;;5023253;28;19920;-79
2022/12/09 14:58:00;;;;;;;;;;;;;;;;;;5023696;28;19917;-77
2022/12/09 15:00:26;;;;;;;;;;;;;;;;;;5022269;28;20370;-76
2022/12/09 15:02:52;;;;;;;;;;;;;;;;;;5019349;28;19971;-78
2022/12/09 15:05:18;;;;;;;;;;;;;;;;;;5019909;28;19921;-77
2022/12/09 15:07:44;;;;;;;;;;;;;;;;;;5027632;28;20006;-77
2022/12/09 15:10:10;;;;;;;;;;;;;;;;;;5020733;28;19914;-77
2022/12/09 15:12:36;;;;;;;;;;;;;;;;;;5021174;28;19929;-77
2022/12/09 15:15:02;;;;;;;;;;;;;;;;;;5016320;28;19960;-77
2022/12/09 15:17:28;;;;;;;;;;;;;;;;;;5024171;28;19960;-77
2022/12/09 15:19:54;;;;;;;;;;;;;;;;;;5018214;28;19996;-76
2022/12/09 15:22:20;;;;;;;;;;;;;;;;;;5021307;28;20660;-77
2022/12/09 15:24:46;;;;;;;;;;;;;;;;;;5020629;28;19940;-77
2022/12/09 15:27:11;;;;;;;;;;;;;;;;;;5022585;28;19937;-76
2022/12/09 15:29:37;;;;;;;;;;;;;;;;;;5020982;28;19917;-76
2022/12/09 15:32:04;;;;;;;;;;;;;;;;;;5021492;28;19924;-77
2022/12/09 15:34:30;;;;;;;;;;;;;;;;;;5023735;28;19918;-77
2022/12/09 15:36:55;;;;;;;;;;;;;;;;;;5019941;28;19914;-76
2022/12/09 15:39:21;;;;;;;;;;;;;;;;;;5024143;28;20378;-77
2022/12/09 15:42:06;;;;;;;;;;;;;;;;;;5020538;28;19917;-78
2022/12/09 15:44:32;;;;;;;;;;;;;;;;;;5021479;28;19932;-77
2022/12/09 15:46:57;;;;;;;;;;;;;;;;;;5017035;28;20310;-77
2022/12/09 15:49:23;;;;;;;;;;;;;;;;;;5023126;28;20012;-78
2022/12/09 15:51:49;;;;;;;;;;;;;;;;;;5018639;28;19921;-78
2022/12/09 15:54:15;;;;;;;;;;;;;;;;;;5021791;28;19917;-77
2022/12/09 15:56:41;;;;;;;;;;;;;;;;;;5020586;28;19921;-78
2022/12/09 15:59:07;;;;;;;;;;;;;;;;;;5018493;28;20389;-78
2022/12/09 16:01:33;;;;;;;;;;;;;;;;;;5020211;28;19921;-77
2022/12/09 16:03:59;;;;;;;;;;;;;;;;;;5021212;28;19917;-77
2022/12/09 16:06:25;;;;;;;;;;;;;;;;;;5018812;28;19972;-77
2022/12/09 16:08:51;;;;;;;;;;;;;;;;;;5024579;28;19929;-77
2022/12/09 16:11:17;;;;;;;;;;;;;;;;;;5017042;28;20000;-77
2022/12/09 16:13:43;;;;;;;;;;;;;;;;;;5024114;28;19913;-77
2022/12/09 16:16:09;;;;;;;;;;;;;;;;;;5019711;28;19953;-77
2022/12/09 16:18:35;;;;;;;;;;;;;;;;;;5021893;28;19921;-78
2022/12/09 16:21:01;;;;;;;;;;;;;;;;;;5017375;28;19960;-77
2022/12/09 16:23:27;;;;;;;;;;;;;;;;;;5017018;28;20405;-75
2022/12/09 16:25:53;;;;;;;;;;;;;;;;;;5024250;28;20436;-76
2022/12/09 16:28:19;;;;;;;;;;;;;;;;;;5024554;28;20012;-77
2022/12/09 16:30:45;;;;;;;;;;;;;;;;;;5030290;28;19917;-79
2022/12/09 16:33:11;;;;;;;;;;;;;;;;;;5019373;28;19917;-78
2022/12/09 16:35:36;;;;;;;;;;;;;;;;;;5020595;28;19970;-79
2022/12/09 16:38:02;;;;;;;;;;;;;;;;;;5019817;28;19918;-78
2022/12/09 16:40:30;;;;;;;;;;;;;;;;;;5022594;28;19918;-79
2022/12/09 16:42:56;;;;;;;;;;;;;;;;;;5019990;28;19918;-79